OCI672 YBCS-YSSY
Flight info
| Callsign | OCI672 |
|---|---|
| Flight time | 2h 26m |
| Altitude | 37000 |
| Route | CS Y177 AKROM Y153 ROKUU H652 BOREE |
| Aircraft | A20N/M-SDE2E3FGHIRWXY/LB1 |
Departure
| Time | 2026-05-09 05:25 |
|---|---|
| Airport | Cairns International Airport (YBCS) |
Arrival
| Time | 2026-05-09 07:51 |
|---|---|
| Airport | Sydney Kingsford Smith International Airport (YSSY) |
| Time | Latitude | Longitude | Altitude | Speed | Heading |
|---|---|---|---|---|---|
| 2026-05-09 04:54 | -16.87289 | 145.75341 | 2 ft | 0 kts | 157° |
| 2026-05-09 05:15 | -16.87286 | 145.75340 | 3 ft | 2 kts | 157° |
| 2026-05-09 05:15 | -16.87264 | 145.75330 | 14 ft | 4 kts | 157° |
| 2026-05-09 05:15 | -16.87233 | 145.75316 | -1 ft | 6 kts | 158° |
| 2026-05-09 05:16 | -16.87199 | 145.75318 | -1 ft | 4 kts | 225° |
| 2026-05-09 05:16 | -16.87194 | 145.75324 | -1 ft | 0 kts | 245° |
| 2026-05-09 05:18 | -16.87195 | 145.75323 | -1 ft | 1 kts | 245° |
| 2026-05-09 05:18 | -16.87208 | 145.75293 | -2 ft | 8 kts | 245° |
| 2026-05-09 05:18 | -16.87238 | 145.75225 | -3 ft | 12 kts | 246° |
| 2026-05-09 05:19 | -16.87274 | 145.75136 | -3 ft | 14 kts | 247° |
| 2026-05-09 05:19 | -16.87316 | 145.75032 | -4 ft | 17 kts | 249° |
| 2026-05-09 05:19 | -16.87296 | 145.74902 | -7 ft | 20 kts | 298° |
| 2026-05-09 05:19 | -16.87175 | 145.74821 | -7 ft | 20 kts | 336° |
| 2026-05-09 05:20 | -16.87067 | 145.74769 | -8 ft | 16 kts | 323° |
| 2026-05-09 05:20 | -16.87054 | 145.74698 | -11 ft | 0 kts | 249° |
| 2026-05-09 05:22 | -16.87062 | 145.74676 | -12 ft | 7 kts | 249° |
| 2026-05-09 05:22 | -16.87075 | 145.74601 | -13 ft | 14 kts | 283° |
| 2026-05-09 05:22 | -16.86975 | 145.74534 | -13 ft | 21 kts | 338° |
| 2026-05-09 05:22 | -16.86821 | 145.74465 | -12 ft | 27 kts | 336° |
| 2026-05-09 05:23 | -16.86656 | 145.74378 | -6 ft | 23 kts | 317° |
| 2026-05-09 05:23 | -16.86588 | 145.74370 | -4 ft | 2 kts | 77° |
| 2026-05-09 05:23 | -16.86597 | 145.74377 | -5 ft | 2 kts | 167° |
| 2026-05-09 05:23 | -16.86634 | 145.74385 | -5 ft | 9 kts | 167° |
| 2026-05-09 05:24 | -16.86728 | 145.74423 | -8 ft | 25 kts | 156° |
| 2026-05-09 05:24 | -16.87101 | 145.74593 | -14 ft | 91 kts | 156° |
| 2026-05-09 05:24 | -16.87848 | 145.74927 | 14 ft | 141 kts | 157° |
| 2026-05-09 05:24 | -16.88856 | 145.75374 | 208 ft | 165 kts | 157° |
| 2026-05-09 05:25 | -16.89838 | 145.75874 | 1063 ft | 151 kts | 139° |
| 2026-05-09 05:25 | -16.90255 | 145.76871 | 1593 ft | 165 kts | 88° |
| 2026-05-09 05:25 | -16.88677 | 145.78967 | 2436 ft | 207 kts | 45° |
| 2026-05-09 05:26 | -16.87537 | 145.79863 | 3373 ft | 200 kts | 43° |
| 2026-05-09 05:26 | -16.86436 | 145.80697 | 4358 ft | 192 kts | 44° |
| 2026-05-09 05:26 | -16.85363 | 145.81507 | 5245 ft | 189 kts | 43° |
| 2026-05-09 05:26 | -16.84426 | 145.82443 | 5916 ft | 186 kts | 66° |
| 2026-05-09 05:27 | -16.84171 | 145.83720 | 6598 ft | 182 kts | 93° |
| 2026-05-09 05:27 | -16.84329 | 145.85033 | 7218 ft | 186 kts | 95° |
| 2026-05-09 05:27 | -16.84388 | 145.86468 | 7421 ft | 211 kts | 89° |
| 2026-05-09 05:27 | -16.84343 | 145.88091 | 7603 ft | 237 kts | 87° |
| 2026-05-09 05:28 | -16.84383 | 145.89886 | 7955 ft | 255 kts | 99° |
| 2026-05-09 05:28 | -16.85049 | 145.91628 | 8470 ft | 269 kts | 122° |
| 2026-05-09 05:28 | -16.86435 | 145.92976 | 9176 ft | 282 kts | 144° |
| 2026-05-09 05:28 | -16.88173 | 145.94023 | 9713 ft | 293 kts | 148° |
| 2026-05-09 05:29 | -16.89977 | 145.95059 | 10307 ft | 301 kts | 148° |
| 2026-05-09 05:29 | -16.91887 | 145.96153 | 10503 ft | 323 kts | 150° |
| 2026-05-09 05:29 | -16.93922 | 145.97321 | 10692 ft | 343 kts | 150° |
| 2026-05-09 05:29 | -16.96043 | 145.98543 | 11165 ft | 351 kts | 150° |
| 2026-05-09 05:30 | -16.98190 | 145.99783 | 11805 ft | 355 kts | 150° |
| 2026-05-09 05:30 | -17.00366 | 146.01044 | 12360 ft | 360 kts | 150° |
| 2026-05-09 05:30 | -17.02562 | 146.02318 | 13035 ft | 363 kts | 150° |
| 2026-05-09 05:30 | -17.04783 | 146.03608 | 13660 ft | 366 kts | 151° |
| 2026-05-09 05:31 | -17.07020 | 146.04907 | 14209 ft | 371 kts | 151° |
| 2026-05-09 05:31 | -17.09288 | 146.06224 | 14762 ft | 373 kts | 151° |
| 2026-05-09 05:31 | -17.11571 | 146.07550 | 15256 ft | 378 kts | 152° |
| 2026-05-09 05:31 | -17.13880 | 146.08892 | 15811 ft | 381 kts | 152° |
| 2026-05-09 05:32 | -17.16211 | 146.10247 | 16295 ft | 385 kts | 152° |
| 2026-05-09 05:32 | -17.18546 | 146.11605 | 16868 ft | 387 kts | 152° |
| 2026-05-09 05:32 | -17.20924 | 146.12988 | 17271 ft | 392 kts | 152° |
| 2026-05-09 05:32 | -17.23329 | 146.14389 | 17675 ft | 399 kts | 153° |
| 2026-05-09 05:33 | -17.25760 | 146.15803 | 18279 ft | 399 kts | 153° |
| 2026-05-09 05:33 | -17.28164 | 146.17202 | 18710 ft | 402 kts | 153° |
| 2026-05-09 05:33 | -17.30625 | 146.18634 | 19105 ft | 407 kts | 153° |
| 2026-05-09 05:33 | -17.33116 | 146.20085 | 19481 ft | 411 kts | 153° |
| 2026-05-09 05:34 | -17.35635 | 146.21552 | 19853 ft | 416 kts | 153° |
| 2026-05-09 05:34 | -17.38165 | 146.23025 | 20315 ft | 418 kts | 153° |
| 2026-05-09 05:34 | -17.40721 | 146.24513 | 20738 ft | 421 kts | 153° |
| 2026-05-09 05:34 | -17.43298 | 146.26014 | 21091 ft | 426 kts | 152° |
| 2026-05-09 05:35 | -17.45898 | 146.27530 | 21488 ft | 429 kts | 152° |
| 2026-05-09 05:35 | -17.48519 | 146.29058 | 21886 ft | 433 kts | 152° |
| 2026-05-09 05:35 | -17.51171 | 146.30605 | 22249 ft | 437 kts | 152° |
| 2026-05-09 05:35 | -17.53835 | 146.32160 | 22629 ft | 440 kts | 152° |
| 2026-05-09 05:36 | -17.56472 | 146.33700 | 22984 ft | 445 kts | 152° |
| 2026-05-09 05:36 | -17.59239 | 146.35315 | 23302 ft | 450 kts | 152° |
| 2026-05-09 05:36 | -17.61983 | 146.36919 | 23678 ft | 453 kts | 152° |
| 2026-05-09 05:36 | -17.64742 | 146.38532 | 23990 ft | 456 kts | 152° |
| 2026-05-09 05:37 | -17.67484 | 146.40135 | 24327 ft | 458 kts | 153° |
| 2026-05-09 05:37 | -17.70283 | 146.41773 | 24648 ft | 461 kts | 153° |
| 2026-05-09 05:37 | -17.73092 | 146.43417 | 24945 ft | 463 kts | 153° |
| 2026-05-09 05:37 | -17.75911 | 146.45067 | 25268 ft | 465 kts | 153° |
| 2026-05-09 05:38 | -17.78747 | 146.46728 | 25569 ft | 468 kts | 153° |
| 2026-05-09 05:38 | -17.81595 | 146.48397 | 25869 ft | 470 kts | 153° |
| 2026-05-09 05:38 | -17.84462 | 146.50077 | 26161 ft | 473 kts | 153° |
| 2026-05-09 05:38 | -17.87337 | 146.51763 | 26449 ft | 475 kts | 153° |
| 2026-05-09 05:39 | -17.90233 | 146.53463 | 26714 ft | 478 kts | 154° |
| 2026-05-09 05:39 | -17.93145 | 146.55171 | 26993 ft | 480 kts | 154° |
| 2026-05-09 05:39 | -17.96073 | 146.56890 | 27265 ft | 482 kts | 154° |
| 2026-05-09 05:39 | -17.99009 | 146.58613 | 27533 ft | 484 kts | 154° |
| 2026-05-09 05:40 | -18.00961 | 146.59759 | 27717 ft | 486 kts | 154° |
| 2026-05-09 05:40 | -18.04925 | 146.62089 | 28051 ft | 489 kts | 154° |
| 2026-05-09 05:40 | -18.07858 | 146.63813 | 28295 ft | 491 kts | 154° |
| 2026-05-09 05:40 | -18.10849 | 146.65572 | 28545 ft | 493 kts | 154° |
| 2026-05-09 05:41 | -18.12840 | 146.66744 | 28706 ft | 494 kts | 154° |
| 2026-05-09 05:41 | -18.15847 | 146.68513 | 28957 ft | 496 kts | 154° |
| 2026-05-09 05:41 | -18.18881 | 146.70300 | 29173 ft | 498 kts | 154° |
| 2026-05-09 05:41 | -18.21914 | 146.72086 | 29408 ft | 500 kts | 154° |
| 2026-05-09 05:42 | -18.24957 | 146.73879 | 29624 ft | 502 kts | 154° |
| 2026-05-09 05:42 | -18.28006 | 146.75677 | 29834 ft | 504 kts | 154° |
| 2026-05-09 05:42 | -18.31082 | 146.77490 | 30071 ft | 506 kts | 154° |
| 2026-05-09 05:42 | -18.34203 | 146.79212 | 30265 ft | 505 kts | 160° |
| 2026-05-09 05:43 | -18.37472 | 146.80533 | 30451 ft | 502 kts | 168° |
| 2026-05-09 05:43 | -18.40832 | 146.81472 | 30636 ft | 500 kts | 171° |
| 2026-05-09 05:43 | -18.44181 | 146.82350 | 30833 ft | 502 kts | 171° |
| 2026-05-09 05:43 | -18.47624 | 146.83264 | 31036 ft | 504 kts | 171° |
| 2026-05-09 05:44 | -18.51024 | 146.84169 | 31275 ft | 505 kts | 171° |
| 2026-05-09 05:44 | -18.54437 | 146.85078 | 31549 ft | 505 kts | 171° |
| 2026-05-09 05:44 | -18.57792 | 146.85971 | 31808 ft | 505 kts | 172° |
| 2026-05-09 05:44 | -18.61205 | 146.86878 | 32054 ft | 505 kts | 172° |
| 2026-05-09 05:45 | -18.64611 | 146.87782 | 32307 ft | 505 kts | 172° |
| 2026-05-09 05:45 | -18.68016 | 146.88686 | 32552 ft | 505 kts | 172° |
| 2026-05-09 05:45 | -18.71423 | 146.89592 | 32790 ft | 505 kts | 172° |
| 2026-05-09 05:45 | -18.74840 | 146.90500 | 33021 ft | 505 kts | 172° |
| 2026-05-09 05:46 | -18.78256 | 146.91408 | 33246 ft | 505 kts | 172° |
| 2026-05-09 05:46 | -18.81663 | 146.92315 | 33459 ft | 505 kts | 172° |
| 2026-05-09 05:46 | -18.85079 | 146.93225 | 33679 ft | 505 kts | 172° |
| 2026-05-09 05:46 | -18.88491 | 146.94134 | 33902 ft | 505 kts | 172° |
| 2026-05-09 05:47 | -18.91898 | 146.95042 | 34100 ft | 505 kts | 172° |
| 2026-05-09 05:47 | -18.95306 | 146.95950 | 34285 ft | 505 kts | 172° |
| 2026-05-09 05:47 | -18.98708 | 146.96857 | 34484 ft | 504 kts | 172° |
| 2026-05-09 05:47 | -19.02111 | 146.97765 | 34659 ft | 503 kts | 172° |
| 2026-05-09 05:48 | -19.05459 | 146.98659 | 34849 ft | 503 kts | 172° |
| 2026-05-09 05:48 | -19.08852 | 146.99565 | 35020 ft | 502 kts | 172° |
| 2026-05-09 05:48 | -19.12250 | 147.00472 | 35212 ft | 502 kts | 172° |
| 2026-05-09 05:48 | -19.15637 | 147.01378 | 35363 ft | 502 kts | 173° |
| 2026-05-09 05:49 | -19.19023 | 147.02283 | 35527 ft | 502 kts | 173° |
| 2026-05-09 05:49 | -19.22421 | 147.03192 | 35703 ft | 501 kts | 173° |
| 2026-05-09 05:49 | -19.25760 | 147.04085 | 35889 ft | 500 kts | 173° |
| 2026-05-09 05:49 | -19.29134 | 147.04989 | 35994 ft | 501 kts | 173° |
| 2026-05-09 05:50 | -19.32515 | 147.05893 | 36154 ft | 500 kts | 173° |
| 2026-05-09 05:50 | -19.35888 | 147.06797 | 36318 ft | 500 kts | 173° |
| 2026-05-09 05:50 | -19.39254 | 147.07699 | 36473 ft | 499 kts | 173° |
| 2026-05-09 05:50 | -19.42630 | 147.08605 | 36642 ft | 499 kts | 173° |
| 2026-05-09 05:51 | -19.49375 | 147.10414 | 36875 ft | 500 kts | 173° |
| 2026-05-09 05:51 | -19.52754 | 147.11321 | 37011 ft | 499 kts | 173° |
| 2026-05-09 05:51 | -19.56122 | 147.12226 | 37072 ft | 499 kts | 173° |
| 2026-05-09 05:52 | -19.62802 | 147.14022 | 37073 ft | 498 kts | 173° |
| 2026-05-09 05:52 | -19.69518 | 147.15828 | 37072 ft | 498 kts | 173° |
| 2026-05-09 05:53 | -19.76260 | 147.17643 | 37074 ft | 499 kts | 173° |
| 2026-05-09 05:53 | -19.83000 | 147.19459 | 37073 ft | 499 kts | 173° |
| 2026-05-09 05:54 | -19.89724 | 147.21274 | 37072 ft | 499 kts | 174° |
| 2026-05-09 05:54 | -19.96414 | 147.23080 | 37071 ft | 498 kts | 173° |
| 2026-05-09 05:55 | -20.03135 | 147.24896 | 37090 ft | 498 kts | 174° |
| 2026-05-09 05:55 | -20.09856 | 147.26714 | 37070 ft | 499 kts | 174° |
| 2026-05-09 05:56 | -20.16585 | 147.28535 | 37069 ft | 498 kts | 174° |
| 2026-05-09 05:56 | -20.23320 | 147.30360 | 37069 ft | 498 kts | 174° |
| 2026-05-09 05:57 | -20.30039 | 147.32181 | 37070 ft | 499 kts | 174° |
| 2026-05-09 05:57 | -20.36721 | 147.33995 | 37074 ft | 499 kts | 174° |
| 2026-05-09 05:58 | -20.43470 | 147.35828 | 37073 ft | 500 kts | 174° |
| 2026-05-09 05:58 | -20.50213 | 147.37661 | 37083 ft | 500 kts | 174° |
| 2026-05-09 05:59 | -20.56954 | 147.39496 | 37081 ft | 500 kts | 174° |
| 2026-05-09 05:59 | -20.63700 | 147.41333 | 37093 ft | 500 kts | 174° |
| 2026-05-09 06:00 | -20.70442 | 147.43173 | 37083 ft | 500 kts | 174° |
| 2026-05-09 06:00 | -20.77171 | 147.45009 | 37077 ft | 499 kts | 174° |
| 2026-05-09 06:01 | -20.83917 | 147.46850 | 37084 ft | 500 kts | 174° |
| 2026-05-09 06:01 | -20.90662 | 147.48693 | 37087 ft | 500 kts | 174° |
| 2026-05-09 06:02 | -20.97410 | 147.50540 | 37087 ft | 501 kts | 174° |
| 2026-05-09 06:02 | -21.04162 | 147.52390 | 37093 ft | 501 kts | 174° |
| 2026-05-09 06:03 | -21.10875 | 147.54230 | 37090 ft | 501 kts | 174° |
| 2026-05-09 06:03 | -21.17633 | 147.56085 | 37092 ft | 500 kts | 174° |
| 2026-05-09 06:04 | -21.24383 | 147.57939 | 37095 ft | 500 kts | 174° |
| 2026-05-09 06:04 | -21.31124 | 147.59792 | 37098 ft | 500 kts | 174° |
| 2026-05-09 06:05 | -21.37881 | 147.61652 | 37097 ft | 500 kts | 174° |
| 2026-05-09 06:05 | -21.44620 | 147.63508 | 37096 ft | 500 kts | 174° |
| 2026-05-09 06:06 | -21.51315 | 147.65354 | 37110 ft | 500 kts | 174° |
| 2026-05-09 06:06 | -21.58069 | 147.67219 | 37098 ft | 500 kts | 175° |
| 2026-05-09 06:07 | -21.64810 | 147.69081 | 37098 ft | 500 kts | 175° |
| 2026-05-09 06:07 | -21.71548 | 147.70943 | 37100 ft | 499 kts | 175° |
| 2026-05-09 06:08 | -21.78277 | 147.72806 | 37103 ft | 499 kts | 175° |
| 2026-05-09 06:08 | -21.85018 | 147.74674 | 37101 ft | 500 kts | 175° |
| 2026-05-09 06:09 | -21.91756 | 147.76543 | 37102 ft | 500 kts | 175° |
| 2026-05-09 06:09 | -21.98464 | 147.78405 | 37102 ft | 500 kts | 175° |
| 2026-05-09 06:10 | -22.05211 | 147.80280 | 37107 ft | 500 kts | 175° |
| 2026-05-09 06:10 | -22.11951 | 147.82155 | 37130 ft | 500 kts | 175° |
| 2026-05-09 06:11 | -22.18704 | 147.84035 | 37115 ft | 501 kts | 175° |
| 2026-05-09 06:11 | -22.25459 | 147.85917 | 37120 ft | 501 kts | 175° |
| 2026-05-09 06:12 | -22.32221 | 147.87803 | 37123 ft | 502 kts | 175° |
| 2026-05-09 06:12 | -22.38937 | 147.89679 | 37124 ft | 502 kts | 175° |
| 2026-05-09 06:13 | -22.45706 | 147.91572 | 37124 ft | 503 kts | 175° |
| 2026-05-09 06:13 | -22.52478 | 147.93467 | 37127 ft | 502 kts | 175° |
| 2026-05-09 06:14 | -22.59238 | 147.95362 | 37123 ft | 500 kts | 175° |
| 2026-05-09 06:14 | -22.65985 | 147.97252 | 37123 ft | 501 kts | 175° |
| 2026-05-09 06:15 | -22.72693 | 147.99134 | 37121 ft | 501 kts | 176° |
| 2026-05-09 06:15 | -22.79448 | 148.01033 | 37123 ft | 501 kts | 176° |
| 2026-05-09 06:16 | -22.86212 | 148.02937 | 37135 ft | 501 kts | 176° |
| 2026-05-09 06:16 | -22.92971 | 148.04840 | 37145 ft | 501 kts | 176° |
| 2026-05-09 06:17 | -22.99720 | 148.06741 | 37167 ft | 501 kts | 176° |
| 2026-05-09 06:17 | -23.06492 | 148.08652 | 37139 ft | 502 kts | 176° |
| 2026-05-09 06:18 | -23.13217 | 148.10552 | 37139 ft | 502 kts | 176° |
| 2026-05-09 06:18 | -23.19974 | 148.12463 | 37136 ft | 502 kts | 176° |
| 2026-05-09 06:19 | -23.26735 | 148.14376 | 37135 ft | 502 kts | 176° |
| 2026-05-09 06:19 | -23.33502 | 148.16294 | 37140 ft | 502 kts | 176° |
| 2026-05-09 06:20 | -23.40267 | 148.18213 | 37135 ft | 502 kts | 176° |
| 2026-05-09 06:20 | -23.47027 | 148.20132 | 37135 ft | 501 kts | 176° |
| 2026-05-09 06:21 | -23.53778 | 148.22051 | 37135 ft | 501 kts | 176° |
| 2026-05-09 06:21 | -23.60484 | 148.23960 | 37138 ft | 501 kts | 176° |
| 2026-05-09 06:22 | -23.67229 | 148.25881 | 37140 ft | 501 kts | 176° |
| 2026-05-09 06:22 | -23.73974 | 148.27805 | 37137 ft | 500 kts | 176° |
| 2026-05-09 06:23 | -23.80712 | 148.29728 | 37138 ft | 500 kts | 176° |
| 2026-05-09 06:23 | -23.87442 | 148.31651 | 37165 ft | 500 kts | 176° |
| 2026-05-09 06:24 | -23.94172 | 148.33577 | 37139 ft | 500 kts | 177° |
| 2026-05-09 06:24 | -24.00902 | 148.35504 | 37142 ft | 499 kts | 177° |
| 2026-05-09 06:25 | -24.07621 | 148.37430 | 37140 ft | 499 kts | 177° |
| 2026-05-09 06:25 | -24.14349 | 148.39361 | 37139 ft | 499 kts | 177° |
| 2026-05-09 06:26 | -24.21029 | 148.41280 | 37141 ft | 499 kts | 177° |
| 2026-05-09 06:26 | -24.27751 | 148.43213 | 37141 ft | 499 kts | 177° |
| 2026-05-09 06:27 | -24.34475 | 148.45149 | 37141 ft | 499 kts | 177° |
| 2026-05-09 06:27 | -24.40062 | 148.46760 | 37144 ft | 499 kts | 177° |
| 2026-05-09 06:28 | -24.46790 | 148.48701 | 37155 ft | 500 kts | 177° |
| 2026-05-09 06:28 | -24.53515 | 148.50644 | 37156 ft | 500 kts | 177° |
| 2026-05-09 06:29 | -24.60254 | 148.52592 | 37158 ft | 500 kts | 177° |
| 2026-05-09 06:29 | -24.66986 | 148.54540 | 37159 ft | 501 kts | 177° |
| 2026-05-09 06:30 | -24.73734 | 148.56496 | 37166 ft | 501 kts | 177° |
| 2026-05-09 06:30 | -24.80477 | 148.58454 | 37162 ft | 499 kts | 177° |
| 2026-05-09 06:31 | -24.87186 | 148.60403 | 37155 ft | 499 kts | 177° |
| 2026-05-09 06:31 | -24.93869 | 148.62345 | 37158 ft | 499 kts | 177° |
| 2026-05-09 06:32 | -25.00600 | 148.64304 | 37165 ft | 499 kts | 177° |
| 2026-05-09 06:33 | -25.10678 | 148.67243 | 37159 ft | 498 kts | 178° |
| 2026-05-09 06:33 | -25.17368 | 148.69197 | 37155 ft | 496 kts | 178° |
| 2026-05-09 06:34 | -25.27364 | 148.72119 | 37153 ft | 495 kts | 178° |
| 2026-05-09 06:34 | -25.34072 | 148.74078 | 37179 ft | 499 kts | 178° |
| 2026-05-09 06:35 | -25.40784 | 148.76048 | 37177 ft | 499 kts | 178° |
| 2026-05-09 06:35 | -25.47432 | 148.78001 | 37178 ft | 497 kts | 178° |
| 2026-05-09 06:36 | -25.54129 | 148.79967 | 37181 ft | 497 kts | 178° |
| 2026-05-09 06:36 | -25.60824 | 148.81935 | 37216 ft | 497 kts | 178° |
| 2026-05-09 06:37 | -25.67514 | 148.83905 | 37194 ft | 497 kts | 178° |
| 2026-05-09 06:37 | -25.74208 | 148.85880 | 37189 ft | 497 kts | 178° |
| 2026-05-09 06:38 | -25.80895 | 148.87854 | 37188 ft | 497 kts | 178° |
| 2026-05-09 06:38 | -25.87528 | 148.89815 | 37187 ft | 496 kts | 178° |
| 2026-05-09 06:39 | -25.94212 | 148.91791 | 37197 ft | 497 kts | 178° |
| 2026-05-09 06:39 | -26.00891 | 148.93770 | 37197 ft | 496 kts | 178° |
| 2026-05-09 06:40 | -26.07568 | 148.95751 | 37197 ft | 495 kts | 178° |
| 2026-05-09 06:40 | -26.14230 | 148.97729 | 37193 ft | 495 kts | 178° |
| 2026-05-09 06:41 | -26.20895 | 148.99709 | 37204 ft | 495 kts | 178° |
| 2026-05-09 06:41 | -26.27554 | 149.01692 | 37203 ft | 495 kts | 178° |
| 2026-05-09 06:42 | -26.34156 | 149.03660 | 37201 ft | 494 kts | 178° |
| 2026-05-09 06:42 | -26.40803 | 149.05644 | 37204 ft | 493 kts | 178° |
| 2026-05-09 06:43 | -26.47434 | 149.07622 | 37206 ft | 493 kts | 178° |
| 2026-05-09 06:43 | -26.54013 | 149.09800 | 37200 ft | 494 kts | 175° |
| 2026-05-09 06:44 | -26.60606 | 149.12103 | 37200 ft | 495 kts | 175° |
| 2026-05-09 06:44 | -26.67138 | 149.14355 | 37200 ft | 494 kts | 175° |
| 2026-05-09 06:45 | -26.73728 | 149.16614 | 37231 ft | 494 kts | 175° |
| 2026-05-09 06:45 | -26.80279 | 149.18861 | 37195 ft | 491 kts | 175° |
| 2026-05-09 06:46 | -26.86805 | 149.21102 | 37203 ft | 490 kts | 175° |
| 2026-05-09 06:46 | -26.93361 | 149.23348 | 37203 ft | 494 kts | 175° |
| 2026-05-09 06:47 | -26.99920 | 149.25608 | 37206 ft | 492 kts | 175° |
| 2026-05-09 06:47 | -27.06433 | 149.27853 | 37205 ft | 493 kts | 175° |
| 2026-05-09 06:48 | -27.12993 | 149.30115 | 37206 ft | 493 kts | 175° |
| 2026-05-09 06:48 | -27.19556 | 149.32382 | 37205 ft | 493 kts | 175° |
| 2026-05-09 06:49 | -27.26114 | 149.34650 | 37205 ft | 493 kts | 175° |
| 2026-05-09 06:49 | -27.32665 | 149.36918 | 37213 ft | 493 kts | 175° |
| 2026-05-09 06:50 | -27.39199 | 149.39186 | 37208 ft | 490 kts | 175° |
| 2026-05-09 06:50 | -27.45691 | 149.41437 | 37205 ft | 491 kts | 175° |
| 2026-05-09 06:51 | -27.52230 | 149.43709 | 37202 ft | 491 kts | 175° |
| 2026-05-09 06:51 | -27.58715 | 149.45965 | 37205 ft | 491 kts | 175° |
| 2026-05-09 06:52 | -27.65226 | 149.48236 | 37207 ft | 488 kts | 175° |
| 2026-05-09 06:52 | -27.71704 | 149.50497 | 37193 ft | 485 kts | 175° |
| 2026-05-09 06:53 | -27.78190 | 149.52755 | 37209 ft | 490 kts | 175° |
| 2026-05-09 06:53 | -27.84697 | 149.55032 | 37208 ft | 489 kts | 175° |
| 2026-05-09 06:54 | -27.91167 | 149.57301 | 37210 ft | 487 kts | 175° |
| 2026-05-09 06:54 | -27.97645 | 149.59571 | 37208 ft | 488 kts | 175° |
| 2026-05-09 06:55 | -28.04139 | 149.61849 | 37216 ft | 487 kts | 175° |
| 2026-05-09 06:55 | -28.10616 | 149.64126 | 37213 ft | 487 kts | 175° |
| 2026-05-09 06:56 | -28.17092 | 149.66405 | 37221 ft | 487 kts | 175° |
| 2026-05-09 06:56 | -28.23534 | 149.68479 | 37220 ft | 480 kts | 179° |
| 2026-05-09 06:57 | -28.30013 | 149.70283 | 37214 ft | 479 kts | 179° |
| 2026-05-09 06:57 | -28.36488 | 149.72127 | 37210 ft | 479 kts | 178° |
| 2026-05-09 06:58 | -28.42958 | 149.74007 | 37238 ft | 479 kts | 178° |
| 2026-05-09 06:58 | -28.49430 | 149.75895 | 37215 ft | 479 kts | 178° |
| 2026-05-09 06:59 | -28.55883 | 149.77780 | 37215 ft | 479 kts | 178° |
| 2026-05-09 06:59 | -28.62293 | 149.79654 | 37210 ft | 478 kts | 178° |
| 2026-05-09 07:00 | -28.68739 | 149.81542 | 37207 ft | 478 kts | 178° |
| 2026-05-09 07:00 | -28.75185 | 149.83430 | 37218 ft | 479 kts | 178° |
| 2026-05-09 07:01 | -28.81640 | 149.85324 | 37216 ft | 479 kts | 178° |
| 2026-05-09 07:01 | -28.88091 | 149.87221 | 37217 ft | 479 kts | 178° |
| 2026-05-09 07:02 | -28.94553 | 149.89123 | 37223 ft | 478 kts | 178° |
| 2026-05-09 07:02 | -29.00999 | 149.91022 | 37220 ft | 478 kts | 178° |
| 2026-05-09 07:03 | -29.07422 | 149.92919 | 37222 ft | 476 kts | 178° |
| 2026-05-09 07:03 | -29.13802 | 149.94803 | 37222 ft | 477 kts | 178° |
| 2026-05-09 07:04 | -29.20228 | 149.96704 | 37224 ft | 477 kts | 178° |
| 2026-05-09 07:04 | -29.26653 | 149.98606 | 37228 ft | 476 kts | 177° |
| 2026-05-09 07:05 | -29.33055 | 150.00505 | 37212 ft | 474 kts | 177° |
| 2026-05-09 07:05 | -29.39429 | 150.02399 | 37198 ft | 472 kts | 177° |
| 2026-05-09 07:06 | -29.45821 | 150.04294 | 37227 ft | 477 kts | 177° |
| 2026-05-09 07:06 | -29.52251 | 150.06209 | 37257 ft | 476 kts | 176° |
| 2026-05-09 07:07 | -29.58650 | 150.08116 | 37228 ft | 475 kts | 176° |
| 2026-05-09 07:07 | -29.65006 | 150.10012 | 37225 ft | 475 kts | 176° |
| 2026-05-09 07:08 | -29.71414 | 150.11928 | 37225 ft | 475 kts | 176° |
| 2026-05-09 07:08 | -29.77822 | 150.13847 | 37227 ft | 475 kts | 176° |
| 2026-05-09 07:09 | -29.84223 | 150.15766 | 37229 ft | 475 kts | 176° |
| 2026-05-09 07:09 | -29.90630 | 150.17688 | 37241 ft | 475 kts | 176° |
| 2026-05-09 07:10 | -29.96980 | 150.19596 | 37238 ft | 475 kts | 176° |
| 2026-05-09 07:10 | -30.03368 | 150.21520 | 37244 ft | 474 kts | 176° |
| 2026-05-09 07:11 | -30.09754 | 150.23442 | 37250 ft | 474 kts | 175° |
| 2026-05-09 07:11 | -30.16152 | 150.25373 | 37247 ft | 474 kts | 175° |
| 2026-05-09 07:12 | -30.22530 | 150.27302 | 37248 ft | 474 kts | 175° |
| 2026-05-09 07:12 | -30.28908 | 150.29232 | 37249 ft | 473 kts | 175° |
| 2026-05-09 07:13 | -30.35285 | 150.31162 | 37243 ft | 472 kts | 174° |
| 2026-05-09 07:13 | -30.40544 | 150.32757 | 37246 ft | 470 kts | 174° |
| 2026-05-09 07:14 | -30.46885 | 150.34681 | 37248 ft | 471 kts | 174° |
| 2026-05-09 07:14 | -30.53237 | 150.36613 | 37244 ft | 471 kts | 174° |
| 2026-05-09 07:15 | -30.59577 | 150.38543 | 37262 ft | 471 kts | 174° |
| 2026-05-09 07:15 | -30.65840 | 150.40455 | 37234 ft | 466 kts | 173° |
| 2026-05-09 07:16 | -30.72110 | 150.42369 | 37251 ft | 468 kts | 173° |
| 2026-05-09 07:16 | -30.78430 | 150.44299 | 37247 ft | 469 kts | 173° |
| 2026-05-09 07:17 | -30.84743 | 150.46233 | 37260 ft | 469 kts | 173° |
| 2026-05-09 07:17 | -30.91021 | 150.48158 | 37246 ft | 464 kts | 172° |
| 2026-05-09 07:18 | -30.97284 | 150.50081 | 37252 ft | 466 kts | 172° |
| 2026-05-09 07:18 | -31.03563 | 150.52011 | 37253 ft | 465 kts | 172° |
| 2026-05-09 07:19 | -31.07789 | 150.53313 | 37255 ft | 465 kts | 172° |
| 2026-05-09 07:19 | -31.10149 | 150.54040 | 37254 ft | 465 kts | 172° |
| 2026-05-09 07:20 | -31.15650 | 150.55734 | 37264 ft | 463 kts | 171° |
| 2026-05-09 07:20 | -31.21856 | 150.57651 | 37235 ft | 459 kts | 171° |
| 2026-05-09 07:21 | -31.28063 | 150.59568 | 37253 ft | 464 kts | 171° |
| 2026-05-09 07:21 | -31.34304 | 150.61499 | 37253 ft | 463 kts | 171° |
| 2026-05-09 07:22 | -31.40524 | 150.63427 | 37255 ft | 462 kts | 171° |
| 2026-05-09 07:22 | -31.46733 | 150.65354 | 37260 ft | 461 kts | 170° |
| 2026-05-09 07:23 | -31.52904 | 150.67315 | 37264 ft | 462 kts | 169° |
| 2026-05-09 07:23 | -31.59114 | 150.69270 | 37270 ft | 462 kts | 170° |
| 2026-05-09 07:24 | -31.65340 | 150.71209 | 37291 ft | 463 kts | 170° |
| 2026-05-09 07:24 | -31.71543 | 150.73136 | 37269 ft | 459 kts | 169° |
| 2026-05-09 07:25 | -31.77728 | 150.75062 | 37274 ft | 460 kts | 169° |
| 2026-05-09 07:25 | -31.83906 | 150.76989 | 37274 ft | 459 kts | 169° |
| 2026-05-09 07:26 | -31.90080 | 150.78920 | 37277 ft | 459 kts | 169° |
| 2026-05-09 07:26 | -31.96216 | 150.80842 | 36738 ft | 451 kts | 168° |
| 2026-05-09 07:27 | -31.99254 | 150.81792 | 36060 ft | 452 kts | 168° |
| 2026-05-09 07:27 | -32.02254 | 150.82729 | 35428 ft | 451 kts | 168° |
| 2026-05-09 07:27 | -32.05322 | 150.83447 | 34801 ft | 448 kts | 174° |
| 2026-05-09 07:27 | -32.08411 | 150.83965 | 34151 ft | 447 kts | 173° |
| 2026-05-09 07:28 | -32.11482 | 150.84496 | 33394 ft | 448 kts | 173° |
| 2026-05-09 07:28 | -32.14574 | 150.85038 | 32573 ft | 450 kts | 173° |
| 2026-05-09 07:28 | -32.17681 | 150.85583 | 31775 ft | 451 kts | 172° |
| 2026-05-09 07:28 | -32.20792 | 150.86128 | 31088 ft | 450 kts | 172° |
| 2026-05-09 07:29 | -32.23858 | 150.86664 | 30398 ft | 450 kts | 172° |
| 2026-05-09 07:29 | -32.26971 | 150.87210 | 29760 ft | 445 kts | 171° |
| 2026-05-09 07:29 | -32.29985 | 150.87740 | 29119 ft | 441 kts | 171° |
| 2026-05-09 07:29 | -32.33005 | 150.88271 | 28455 ft | 438 kts | 171° |
| 2026-05-09 07:30 | -32.36012 | 150.88800 | 27832 ft | 435 kts | 171° |
| 2026-05-09 07:30 | -32.38998 | 150.89326 | 27193 ft | 432 kts | 171° |
| 2026-05-09 07:30 | -32.41960 | 150.89848 | 26589 ft | 429 kts | 171° |
| 2026-05-09 07:30 | -32.44909 | 150.90368 | 25991 ft | 426 kts | 171° |
| 2026-05-09 07:31 | -32.47832 | 150.90884 | 25500 ft | 421 kts | 171° |
| 2026-05-09 07:31 | -32.50711 | 150.91392 | 25332 ft | 419 kts | 171° |
| 2026-05-09 07:31 | -32.53604 | 150.91903 | 25199 ft | 417 kts | 171° |
| 2026-05-09 07:31 | -32.56465 | 150.92409 | 24560 ft | 417 kts | 171° |
| 2026-05-09 07:32 | -32.59341 | 150.92917 | 23944 ft | 417 kts | 171° |
| 2026-05-09 07:32 | -32.62203 | 150.93424 | 23350 ft | 413 kts | 171° |
| 2026-05-09 07:32 | -32.65039 | 150.93927 | 22750 ft | 409 kts | 172° |
| 2026-05-09 07:32 | -32.67802 | 150.94418 | 22286 ft | 403 kts | 172° |
| 2026-05-09 07:33 | -32.70555 | 150.94907 | 21739 ft | 399 kts | 172° |
| 2026-05-09 07:33 | -32.76018 | 150.95878 | 20614 ft | 393 kts | 172° |
| 2026-05-09 07:33 | -32.78715 | 150.96357 | 20074 ft | 389 kts | 172° |
| 2026-05-09 07:34 | -32.81385 | 150.96832 | 19545 ft | 386 kts | 172° |
| 2026-05-09 07:34 | -32.84030 | 150.97303 | 19030 ft | 383 kts | 172° |
| 2026-05-09 07:34 | -32.86660 | 150.97772 | 18511 ft | 380 kts | 172° |
| 2026-05-09 07:34 | -32.89270 | 150.98237 | 17937 ft | 377 kts | 172° |
| 2026-05-09 07:35 | -32.91844 | 150.98695 | 17432 ft | 372 kts | 173° |
| 2026-05-09 07:35 | -32.94383 | 150.99149 | 16936 ft | 368 kts | 173° |
| 2026-05-09 07:35 | -32.96907 | 150.99599 | 16420 ft | 365 kts | 172° |
| 2026-05-09 07:35 | -32.99403 | 151.00044 | 15916 ft | 361 kts | 172° |
| 2026-05-09 07:36 | -33.01880 | 151.00486 | 15424 ft | 358 kts | 172° |
| 2026-05-09 07:36 | -33.04331 | 151.00924 | 14941 ft | 354 kts | 172° |
| 2026-05-09 07:36 | -33.06761 | 151.01358 | 14462 ft | 351 kts | 172° |
| 2026-05-09 07:36 | -33.09135 | 151.01783 | 14000 ft | 348 kts | 172° |
| 2026-05-09 07:37 | -33.11529 | 151.02211 | 13463 ft | 345 kts | 172° |
| 2026-05-09 07:37 | -33.13891 | 151.02634 | 12931 ft | 343 kts | 172° |
| 2026-05-09 07:37 | -33.16247 | 151.03056 | 12415 ft | 340 kts | 172° |
| 2026-05-09 07:37 | -33.18580 | 151.03475 | 11933 ft | 337 kts | 172° |
| 2026-05-09 07:38 | -33.20885 | 151.03888 | 11455 ft | 335 kts | 172° |
| 2026-05-09 07:38 | -33.23187 | 151.04301 | 10960 ft | 332 kts | 172° |
| 2026-05-09 07:38 | -33.25461 | 151.04717 | 10535 ft | 328 kts | 172° |
| 2026-05-09 07:38 | -33.27703 | 151.05146 | 10161 ft | 323 kts | 172° |
| 2026-05-09 07:39 | -33.29886 | 151.05570 | 9999 ft | 311 kts | 172° |
| 2026-05-09 07:39 | -33.31984 | 151.05977 | 9871 ft | 298 kts | 172° |
| 2026-05-09 07:39 | -33.33986 | 151.06364 | 9749 ft | 285 kts | 172° |
| 2026-05-09 07:39 | -33.35893 | 151.06731 | 9485 ft | 279 kts | 172° |
| 2026-05-09 07:40 | -33.37805 | 151.07098 | 9076 ft | 277 kts | 172° |
| 2026-05-09 07:40 | -33.39706 | 151.07462 | 8669 ft | 277 kts | 172° |
| 2026-05-09 07:40 | -33.41603 | 151.07826 | 8291 ft | 275 kts | 172° |
| 2026-05-09 07:40 | -33.43487 | 151.08187 | 7906 ft | 274 kts | 171° |
| 2026-05-09 07:41 | -33.45370 | 151.08548 | 7519 ft | 273 kts | 171° |
| 2026-05-09 07:41 | -33.47236 | 151.08907 | 7159 ft | 271 kts | 171° |
| 2026-05-09 07:41 | -33.49098 | 151.09264 | 6769 ft | 270 kts | 171° |
| 2026-05-09 07:41 | -33.50943 | 151.09619 | 6430 ft | 268 kts | 171° |
| 2026-05-09 07:42 | -33.52777 | 151.09973 | 6106 ft | 265 kts | 171° |
| 2026-05-09 07:42 | -33.54574 | 151.10320 | 6011 ft | 255 kts | 172° |
| 2026-05-09 07:42 | -33.56284 | 151.10651 | 5925 ft | 243 kts | 172° |
| 2026-05-09 07:42 | -33.57918 | 151.10967 | 5710 ft | 235 kts | 172° |
| 2026-05-09 07:43 | -33.59524 | 151.11275 | 5306 ft | 236 kts | 172° |
| 2026-05-09 07:43 | -33.61150 | 151.11589 | 4939 ft | 235 kts | 172° |
| 2026-05-09 07:43 | -33.62758 | 151.11902 | 4573 ft | 234 kts | 172° |
| 2026-05-09 07:43 | -33.64368 | 151.12219 | 4197 ft | 233 kts | 172° |
| 2026-05-09 07:44 | -33.65942 | 151.12532 | 4023 ft | 224 kts | 173° |
| 2026-05-09 07:44 | -33.67428 | 151.12829 | 4008 ft | 219 kts | 173° |
| 2026-05-09 07:44 | -33.68914 | 151.13123 | 3996 ft | 209 kts | 173° |
| 2026-05-09 07:44 | -33.70293 | 151.13409 | 4003 ft | 196 kts | 171° |
| 2026-05-09 07:45 | -33.71636 | 151.13733 | 4005 ft | 197 kts | 170° |
| 2026-05-09 07:45 | -33.72978 | 151.14064 | 4006 ft | 197 kts | 171° |
| 2026-05-09 07:45 | -33.74334 | 151.14239 | 4014 ft | 193 kts | 192° |
| 2026-05-09 07:45 | -33.75549 | 151.13632 | 4001 ft | 191 kts | 206° |
| 2026-05-09 07:46 | -33.76861 | 151.13433 | 4004 ft | 195 kts | 172° |
| 2026-05-09 07:46 | -33.78174 | 151.13908 | 4000 ft | 198 kts | 161° |
| 2026-05-09 07:46 | -33.79419 | 151.14485 | 3992 ft | 182 kts | 162° |
| 2026-05-09 07:46 | -33.80552 | 151.14958 | 3928 ft | 167 kts | 165° |
| 2026-05-09 07:47 | -33.81674 | 151.15415 | 3598 ft | 167 kts | 164° |
| 2026-05-09 07:47 | -33.82761 | 151.15782 | 3266 ft | 162 kts | 169° |
| 2026-05-09 07:47 | -33.83857 | 151.16108 | 2867 ft | 162 kts | 169° |
| 2026-05-09 07:47 | -33.84954 | 151.16393 | 2367 ft | 160 kts | 171° |
| 2026-05-09 07:48 | -33.86021 | 151.16596 | 1986 ft | 149 kts | 173° |
| 2026-05-09 07:48 | -33.87005 | 151.16749 | 1651 ft | 141 kts | 171° |
| 2026-05-09 07:48 | -33.87949 | 151.16970 | 1347 ft | 135 kts | 167° |
| 2026-05-09 07:48 | -33.88865 | 151.17232 | 1169 ft | 137 kts | 167° |
| 2026-05-09 07:49 | -33.89786 | 151.17485 | 1043 ft | 133 kts | 167° |
| 2026-05-09 07:49 | -33.90670 | 151.17728 | 911 ft | 132 kts | 168° |
| 2026-05-09 07:49 | -33.91586 | 151.17962 | 761 ft | 134 kts | 170° |
| 2026-05-09 07:49 | -33.92495 | 151.18179 | 616 ft | 132 kts | 169° |
| 2026-05-09 07:50 | -33.93398 | 151.18423 | 417 ft | 132 kts | 167° |
| 2026-05-09 07:50 | -33.94309 | 151.18655 | 213 ft | 133 kts | 168° |
| 2026-05-09 07:50 | -33.95203 | 151.18886 | 60 ft | 136 kts | 167° |
| 2026-05-09 07:50 | -33.96017 | 151.19103 | 28 ft | 74 kts | 167° |
| 2026-05-09 07:51 | -33.96397 | 151.19204 | 23 ft | 52 kts | 168° |
| 2026-05-09 07:51 | -33.96681 | 151.19184 | 16 ft | 15 kts | 204° |
| 2026-05-09 07:51 | -33.96716 | 151.19139 | 17 ft | 8 kts | 252° |
| 2026-05-09 07:51 | -33.96697 | 151.19084 | 19 ft | 8 kts | 329° |
| 2026-05-09 07:52 | -33.96639 | 151.19063 | 19 ft | 11 kts | 348° |
| 2026-05-09 07:52 | -33.96541 | 151.19040 | 19 ft | 18 kts | 348° |
| 2026-05-09 07:52 | -33.96397 | 151.19002 | 24 ft | 24 kts | 347° |
| 2026-05-09 07:52 | -33.96220 | 151.18957 | 26 ft | 29 kts | 349° |
| 2026-05-09 07:53 | -33.96001 | 151.18901 | 26 ft | 27 kts | 347° |
| 2026-05-09 07:53 | -33.95827 | 151.18856 | 29 ft | 24 kts | 348° |
| 2026-05-09 07:53 | -33.95642 | 151.18809 | 26 ft | 26 kts | 346° |
| 2026-05-09 07:53 | -33.95442 | 151.18754 | 23 ft | 33 kts | 348° |
| 2026-05-09 07:54 | -33.95232 | 151.18667 | 27 ft | 29 kts | 322° |
| 2026-05-09 07:54 | -33.95117 | 151.18486 | 26 ft | 26 kts | 276° |
| 2026-05-09 07:54 | -33.95153 | 151.18247 | 27 ft | 31 kts | 257° |
| 2026-05-09 07:54 | -33.95163 | 151.18191 | 28 ft | 0 kts | 257° |
| 2026-05-09 07:56 | -33.95171 | 151.18146 | 27 ft | 10 kts | 257° |
| 2026-05-09 07:56 | -33.95190 | 151.18032 | 29 ft | 18 kts | 267° |
| 2026-05-09 07:56 | -33.95111 | 151.17951 | 27 ft | 16 kts | 342° |
| 2026-05-09 07:57 | -33.94986 | 151.17915 | 24 ft | 21 kts | 348° |
| 2026-05-09 07:57 | -33.94829 | 151.17875 | 21 ft | 24 kts | 347° |
| 2026-05-09 07:57 | -33.94678 | 151.17835 | 22 ft | 21 kts | 348° |
| 2026-05-09 07:57 | -33.94604 | 151.17816 | 26 ft | 0 kts | 348° |
| 2026-05-09 07:58 | -33.94596 | 151.17814 | 26 ft | 3 kts | 348° |
| 2026-05-09 07:59 | -33.94546 | 151.17801 | 22 ft | 12 kts | 347° |
| 2026-05-09 07:59 | -33.94450 | 151.17773 | 23 ft | 15 kts | 346° |
| 2026-05-09 07:59 | -33.94336 | 151.17737 | 22 ft | 19 kts | 345° |
| 2026-05-09 07:59 | -33.94198 | 151.17694 | 21 ft | 22 kts | 345° |
| 2026-05-09 08:00 | -33.94043 | 151.17648 | 21 ft | 24 kts | 347° |
| 2026-05-09 08:00 | -33.93936 | 151.17619 | 19 ft | 17 kts | 348° |
| 2026-05-09 08:00 | -33.93854 | 151.17730 | 19 ft | 16 kts | 74° |
| 2026-05-09 08:00 | -33.93794 | 151.17781 | 22 ft | 18 kts | 13° |
| 2026-05-09 08:01 | -33.93669 | 151.17808 | 30 ft | 15 kts | 10° |
| 2026-05-09 08:01 | -33.93632 | 151.17805 | 30 ft | 3 kts | 326° |
| 2026-05-09 08:01 | -33.93614 | 151.17774 | 30 ft | 6 kts | 302° |
| 2026-05-09 08:01 | -33.93604 | 151.17756 | 30 ft | 0 kts | 303° |